Air Resources Laboratory banner image
Air Resources Laboratory web site National Oceanic and Atmospheric Administration (NOAA)

ma metar


KACK 190853Z AUTO 12009KT 10SM FEW030 07/04 A3018 RMK AO2 SLP218 T00670044
 58022=
KAQW 190852Z AUTO 14005KT 5SM -SN BR OVC020 00/M01 A3013 RMK AO2 SNE26B43
 SLP211 P0000 60001 T00001006 58015=
KBAF 190853Z AUTO 02003KT 6SM -FZRA BR SCT004 BKN018 OVC024 00/M01 A3017 RMK
 AO2 SLP222 P0003 60009 I1003 I3006 T00001011 58010=
KBED 190856Z AUTO 00000KT 9SM -FZRA SCT023 OVC028 01/M01 A3019 RMK AO2 SLP238
 P0003 60006 I1002 I3003 T00061011 58012=
KBVY 190853Z AUTO 01003KT 10SM -RA OVC025 01/M02 A3020 RMK AO2
 RAB02E16B49FZRAB16E49SNE02 SLP224 P0001 60003 I1001 I3001 T00061017 58010=
KCEF 190856Z AUTO 02003KT 10SM -RA FEW004 BKN017 OVC025 00/M01 A3016 RMK AO2
 FZRAE06UPB06E29RAB29 SLP222 P0006 60012 T00011009 57016=
KCQX 190852Z AUTO 00000KT 10SM FEW024 OVC031 03/01 A3021 RMK AO2 SLP231
 T00280011 56014 $=
KEWB 190853Z AUTO 00000KT 10SM OVC035 04/02 A3018 RMK AO2 SLP219 T00390017
 58016=
KFMH 190855Z AUTO 05005KT 10SM OVC026 04/02 A3020 RMK AO2=
KHYA 190856Z AUTO 00000KT 10SM FEW022 BKN030 03/02 A3018 RMK AO2 SLP221
 T00330017 58014=
KLWM 190854Z AUTO 04004KT 7SM -RA OVC022 01/M02 A3022 RMK AO2 RAB46SNE46 SLP233
 P0000 60000 T00111017 58014=
KMQE 190856Z AUTO 07009KT 01/M02 A3015 RMK AO1 SLP227 T00111017 58015=
KMVY 190853Z AUTO 00000KT 10SM BKN019 OVC027 06/04 A3018 RMK AO2 SLP220
 T00610044 56016=
KORE 190852Z AUTO 00000KT 3SM -SN BR OVC018 00/M02 A3017 RMK AO2 SLP224 P0005
 60011 T00001017 58013=
KORH 190854Z AUTO 08003KT 6SM -FZRA BR BKN010 OVC019 M01/M02 A3015 RMK AO2
 SLP221 P0001 60007 I1001 I3005 T10111017 58008=
KOWD 190853Z AUTO 00000KT 10SM FEW024 OVC039 04/00 A3019 RMK AO2 SLP224
 T00390000 58014=
KPSF 190854Z AUTO 00000KT 2SM -SN BR OVC008 M01/M02 A3010 RMK AO2 SLP202 P0003
 60005 T10061017 58012=
KPVC 190856Z AUTO 00000KT 10SM BKN028 OVC045 06/02 A3021 RMK AO2 SLP228
 T00560022 58010=
KPYM 190852Z AUTO 00000KT 10SM OVC036 04/01 A3019 RMK AO2 SLP222 T00390006
 58017=
KTAN 190852Z AUTO 00000KT 10SM BKN029 OVC035 04/M01 A3018 RMK AO2 SLP221
 T00391011 58015=